METAR Data
IDs: Format: Raw Decoded Include TAF

Data at: 1501 UTC 18 Aug 2019

PFYU 181456Z 00000KT 10SM CLR 04/M01 A3047 RMK AO2 SLP345 T00391006 58001
PFYU 181356Z AUTO 04003KT 10SM SCT090 04/M01 A3048 RMK AO2 SLP348 T00441011
PFYU 181256Z AUTO 03005KT 10SM OVC080 07/M01 A3048 RMK AO2 SLP349 T00671011
PFYU 181156Z AUTO 03006KT 10SM FEW060 OVC075 08/01 A3048 RMK AO2 SLP347 T00780006 10100 20078 53002
PFYU 181056Z AUTO 35004KT 10SM OVC080 08/02 A3047 RMK AO2 SLP343 T00830022
PFYU 180956Z AUTO 02005KT 10SM FEW075 OVC090 08/02 A3047 RMK AO2 SLP343 T00830022
PFYU 180856Z AUTO 01005KT 10SM OVC070 09/01 A3047 RMK AO2 SLP344 T00890011 401500017 55001
PFYU 180756Z AUTO 02006KT 10SM OVC070 09/M01 A3047 RMK AO2 SLP343 T00941006
PFYU 180656Z AUTO 36004KT 10SM OVC075 09/00 A3047 RMK AO2 SLP344 T00940000
PFYU 180556Z AUTO 36005KT 10SM OVC095 09/01 A3047 RMK AO2 SLP346 T00940006 10144 20094 58005
PFYU 180456Z AUTO 32003KT 10SM FEW100 10/01 A3048 RMK AO2 SLP349 T01000006
PFYU 180356Z AUTO 33004KT 10SM OVC110 11/M01 A3048 RMK AO2 SLP348 T01111006
PFYU 180256Z 02005KT 10SM OVC120 12/M02 A3049 RMK AO2 SLP351 T01221022 58003
PFYU 180156Z 02007KT 10SM BKN110 12/M02 A3050 RMK AO2 SLP354 T01221017
PFYU 180056Z 01007KT 10SM SCT120 13/M02 A3050 RMK AO2 SLP355 T01331017
PFYU 172356Z 01006KT 10SM CLR 14/M01 A3050 RMK AO2 SLP354 T01441006 10150 20106 56004
PFYU 172256Z VRB06KT 10SM FEW070 15/00 A3050 RMK AO2 SLP354 T01500000
PFYU 172156Z VRB03KT 10SM CLR 14/00 A3050 RMK AO2 SLP356 T01440000
PFYU 172056Z 02007KT 10SM CLR 13/M01 A3051 RMK AO2 SLP356 T01331006 51001
PFYU 171856Z 00000KT 10SM CLR 12/01 A3051 RMK AO2 SLP358 T01170011
PFYU 171756Z 32004KT 10SM CLR 11/03 A3050 RMK AO2 SLP355 T01060028 10106 20017 51010
PFYU 171656Z 00000KT 10SM CLR 08/02 A3049 RMK AO2 SLP352 T00830022
PFYU 171556Z 00000KT 10SM CLR 06/03 A3049 RMK AO2 SLP353 T00610028
PFYU 171456Z 00000KT 10SM CLR 03/03 A3047 RMK AO2 SLP345 T00280028 51023
PFYU 171356Z AUTO 00000KT 10SM CLR 02/02 A3045 RMK AO2 SLP339 T00220017 FZRANO
PFYU 171256Z AUTO 00000KT 10SM CLR 03/02 A3043 RMK AO2 SLP333 T00330022
PFYU 171156Z AUTO 06003KT 10SM CLR 04/03 A3040 RMK AO2 SLP323 60002 70057 T00440028 10111 20039 51041
PFYU 171056Z AUTO 05003KT 10SM CLR 06/03 A3037 RMK AO2 SLP312 T00560028
PFYU 170956Z AUTO 02005KT 10SM BKN090 07/05 A3033 RMK AO2 SLP298 T00720050
PFYU 170856Z AUTO 05007KT 10SM OVC070 09/06 A3028 RMK AO2 SLP280 60002 T00940061 401500094 51068
PFYU 170756Z AUTO 07005KT 10SM SCT060 OVC080 10/09 A3021 RMK AO2 RAE27 SLP256 P0001 T01000089
PFYU 170656Z AUTO VRB03KT 9SM -RA FEW034 BKN049 OVC100 09/09 A3015 RMK AO2 RAB25 SLP234 P0001 T00940089
PFYU 170636Z AUTO 14005KT 7SM -RA SCT011 BKN036 OVC045 10/08 A3013 RMK AO2 RAB25 P0000
PFYU 170624Z AUTO VRB04KT 10SM BKN011 11/10 A3014 RMK AO2 CIG 007V014 PRESRR
PFYU 170556Z AUTO 26006KT 10SM FEW009 11/10 A3008 RMK AO2 SLP209 T01110100 10150 20111 51013
PFYU 170553Z AUTO 26007KT 10SM FEW009 SCT095 12/10 A3008 RMK AO2
PFYU 170456Z AUTO 26010G15KT 10SM OVC009 13/11 A3006 RMK AO2 SLP202 T01280111
PFYU 170432Z AUTO 26008KT 10SM BKN007 OVC100 13/12 A3005 RMK AO2
PFYU 170419Z AUTO VRB06KT 10SM FEW007 BKN095 13/12 A3004 RMK AO2
PFYU 170356Z AUTO 26006KT 10SM FEW011 SCT095 13/12 A3004 RMK AO2 SLP196 T01330117
PFYU 170337Z AUTO 26005KT 10SM SCT011 14/13 A3003 RMK AO2
PFYU 170329Z AUTO 26005KT 10SM BKN011 14/13 A3003 RMK AO2